Time;durP1;ratioP1;P1;durP2;ratioP2;P2;SDS_P1;SDS_P2;PMS_P1;PMS_P2;Temp;Humidity;BMP_temperature;BMP_pressure;BME280_temperature;BME280_humidity;BME280_pressure;Samples;Min_cycle;Max_cycle;Signal;HPM_P1;HPM_P2
2021/03/12 00:01:04;;;;;;;6.57;2.38;;;8.70;99.90;;;;;;5079154;28;21004;-77
2021/03/12 00:03:32;;;;;;;9.15;3.28;;;8.80;99.90;;;;;;5082917;28;20287;-76
2021/03/12 00:06:05;;;;;;;9.85;2.95;;;8.70;99.90;;;;;;5082639;28;20298;-78
2021/03/12 00:08:34;;;;;;;5.55;2.60;;;8.70;99.90;;;;;;5078941;28;20200;-77
2021/03/12 00:11:01;;;;;;;6.53;2.50;;;8.70;99.90;;;;;;5078353;28;20208;-77
2021/03/12 00:13:28;;;;;;;9.40;3.20;;;8.60;99.90;;;;;;5076034;28;20192;-76
2021/03/12 00:15:55;;;;;;;8.45;2.50;;;8.60;99.90;;;;;;5080837;28;20196;-77
2021/03/12 00:18:26;;;;;;;4.25;2.58;;;8.60;99.90;;;;;;5082625;28;20287;-78
2021/03/12 00:20:53;;;;;;;7.68;2.92;;;8.60;99.90;;;;;;5081668;28;20227;-77
2021/03/12 00:23:20;;;;;;;6.32;2.60;;;8.60;99.90;;;;;;5077822;28;20696;-77
2021/03/12 00:25:48;;;;;;;6.95;2.22;;;8.60;99.90;;;;;;5078586;28;20209;-77
2021/03/12 00:28:16;;;;;;;5.60;2.20;;;8.60;99.90;;;;;;5082820;28;20197;-77
2021/03/12 00:30:44;;;;;;;6.55;2.10;;;8.60;99.90;;;;;;5079955;28;20200;-77
2021/03/12 00:33:12;;;;;;;9.10;2.45;;;8.60;99.90;;;;;;5080315;28;20195;-76
2021/03/12 00:35:41;;;;;;;2.60;2.03;;;8.60;99.90;;;;;;5075631;28;20203;-78
2021/03/12 00:38:08;;;;;;;2.60;2.00;;;8.50;99.90;;;;;;5077918;28;20671;-77
2021/03/12 00:40:39;;;;;;;5.57;1.75;;;8.50;99.90;;;;;;5075370;28;20570;-77
2021/03/12 00:43:06;;;;;;;8.18;2.40;;;8.50;99.90;;;;;;5081386;28;20350;-78
2021/03/12 00:45:34;;;;;;;3.65;2.20;;;8.50;99.90;;;;;;5083502;28;20195;-77
2021/03/12 00:48:01;;;;;;;4.30;2.45;;;8.40;99.90;;;;;;5078786;28;20192;-78
2021/03/12 00:50:30;;;;;;;6.90;2.40;;;8.40;99.90;;;;;;5076000;28;20201;-79
2021/03/12 00:52:58;;;;;;;6.93;2.38;;;8.40;99.90;;;;;;5078947;28;20722;-79
2021/03/12 00:55:24;;;;;;;5.60;2.67;;;8.40;99.90;;;;;;5079697;28;20192;-77
2021/03/12 00:57:52;;;;;;;7.40;3.00;;;8.30;99.90;;;;;;5075530;28;20326;-78
2021/03/12 01:00:21;;;;;;;4.85;2.40;;;8.30;99.90;;;;;;5078364;28;20219;-77
2021/03/12 01:02:48;;;;;;;3.30;2.60;;;8.40;99.90;;;;;;5080240;28;20625;-79
2021/03/12 01:05:14;;;;;;;11.98;2.60;;;8.40;99.90;;;;;;5076583;28;20282;-79
2021/03/12 01:07:41;;;;;;;4.85;2.45;;;8.30;99.90;;;;;;5076755;28;20823;-81
2021/03/12 01:10:09;;;;;;;3.90;2.22;;;8.30;99.90;;;;;;5078517;28;20566;-78
2021/03/12 01:12:35;;;;;;;3.85;3.10;;;8.30;99.90;;;;;;5080643;28;20230;-77
2021/03/12 01:15:06;;;;;;;4.60;2.88;;;8.30;99.90;;;;;;5079668;28;20283;-78
2021/03/12 01:17:32;;;;;;;4.70;2.58;;;8.30;99.90;;;;;;5079024;28;20699;-78
2021/03/12 01:20:00;;;;;;;3.78;2.10;;;8.30;99.90;;;;;;5079821;28;20203;-77
2021/03/12 01:22:26;;;;;;;7.97;2.10;;;8.30;99.90;;;;;;5076851;28;20302;-77
2021/03/12 01:24:53;;;;;;;4.07;2.47;;;8.30;99.90;;;;;;5077707;28;20311;-78
2021/03/12 01:27:19;;;;;;;7.90;3.03;;;8.30;99.90;;;;;;5080400;28;20213;-78
2021/03/12 01:29:46;;;;;;;5.55;2.20;;;8.20;99.90;;;;;;5081481;28;20480;-77
2021/03/12 01:32:13;;;;;;;7.22;3.00;;;8.20;99.90;;;;;;5077461;28;20206;-79
2021/03/12 01:34:40;;;;;;;3.80;2.55;;;8.30;99.90;;;;;;5077340;28;20709;-77
2021/03/12 01:37:06;;;;;;;8.15;2.70;;;8.30;99.90;;;;;;5079596;28;20290;-78
2021/03/12 01:39:33;;;;;;;5.78;2.25;;;8.30;99.90;;;;;;5077909;28;20656;-77
2021/03/12 01:41:59;;;;;;;4.72;2.22;;;8.30;99.90;;;;;;5076504;28;20257;-77
2021/03/12 01:44:27;;;;;;;3.95;2.35;;;8.30;99.90;;;;;;5077816;28;20203;-77
2021/03/12 01:46:53;;;;;;;6.00;3.78;;;8.30;99.90;;;;;;5078295;28;20282;-79
2021/03/12 01:49:21;;;;;;;4.50;2.33;;;8.40;99.90;;;;;;5077415;28;20543;-78
2021/03/12 01:51:48;;;;;;;4.38;2.10;;;8.40;99.90;;;;;;5079625;28;20215;-80
2021/03/12 01:54:14;;;;;;;5.13;2.58;;;8.40;99.90;;;;;;5079525;28;20227;-78
2021/03/12 01:56:40;;;;;;;5.97;2.70;;;8.40;99.90;;;;;;5077777;28;20200;-78
2021/03/12 01:59:07;;;;;;;4.68;2.30;;;8.40;99.90;;;;;;5076745;28;20197;-79
2021/03/12 02:01:34;;;;;;;7.40;2.70;;;8.40;99.90;;;;;;5073444;28;20227;-78
2021/03/12 02:04:00;;;;;;;6.03;2.28;;;8.40;99.90;;;;;;5078130;28;20322;-79
2021/03/12 02:06:27;;;;;;;4.32;2.05;;;8.50;99.90;;;;;;5077052;28;20690;-79
2021/03/12 02:08:54;;;;;;;9.15;2.88;;;8.50;99.90;;;;;;5081206;28;20290;-79
2021/03/12 02:11:21;;;;;;;5.85;2.97;;;8.50;99.90;;;;;;5076930;28;20191;-77
2021/03/12 02:13:56;;;;;;;7.50;2.40;;;8.50;99.90;;;;;;5075030;28;20200;-79
2021/03/12 02:16:28;;;;;;;5.68;2.38;;;8.50;99.90;;;;;;5077487;28;20647;-80
2021/03/12 02:19:00;;;;;;;9.57;2.30;;;8.50;99.90;;;;;;5080418;28;20695;-79
2021/03/12 02:21:33;;;;;;;5.88;2.30;;;8.50;99.90;;;;;;5070779;28;20220;-79
2021/03/12 02:24:16;;;;;;;12.38;3.28;;;8.50;99.90;;;;;;5082906;28;20686;-79
2021/03/12 02:27:05;;;;;;;5.43;2.47;;;8.50;99.90;;;;;;5081428;28;20196;-77
2021/03/12 02:29:34;;;;;;;9.32;2.88;;;8.50;99.90;;;;;;5078881;28;20196;-78
2021/03/12 02:32:04;;;;;;;5.18;2.60;;;8.50;99.90;;;;;;5078548;28;20294;-78
2021/03/12 02:34:36;;;;;;;8.35;3.03;;;8.50;99.90;;;;;;5073550;28;20659;-81
2021/03/12 02:37:05;;;;;;;6.47;2.55;;;8.50;99.90;;;;;;5075868;28;20275;-81
2021/03/12 02:39:36;;;;;;;10.25;2.72;;;8.50;99.90;;;;;;5074504;28;20452;-79
2021/03/12 02:42:04;;;;;;;7.35;2.70;;;8.50;99.90;;;;;;5073552;28;20216;-79
2021/03/12 02:44:33;;;;;;;6.95;2.65;;;8.50;99.90;;;;;;5083393;28;20475;-79
2021/03/12 02:47:04;;;;;;;8.65;2.67;;;8.50;99.90;;;;;;5086480;28;20275;-79
2021/03/12 02:49:32;;;;;;;9.68;3.10;;;8.50;99.90;;;;;;5082588;28;20192;-79
2021/03/12 02:51:59;;;;;;;7.32;2.95;;;8.50;99.90;;;;;;5077649;28;20250;-78
2021/03/12 02:54:25;;;;;;;4.05;2.67;;;8.50;99.90;;;;;;5080201;28;20200;-80
2021/03/12 02:56:52;;;;;;;10.90;2.75;;;8.50;99.90;;;;;;5083945;28;20200;-79
2021/03/12 02:59:20;;;;;;;8.02;3.10;;;8.50;99.90;;;;;;5081870;28;20239;-79
2021/03/12 03:01:50;;;;;;;9.43;4.15;;;8.50;99.90;;;;;;5087246;28;20263;-79
2021/03/12 03:04:18;;;;;;;11.15;4.00;;;8.50;99.90;;;;;;5083023;28;20302;-80
2021/03/12 03:06:46;;;;;;;7.20;2.95;;;8.50;99.90;;;;;;5081664;28;20284;-78
2021/03/12 03:09:13;;;;;;;7.53;3.03;;;8.40;99.90;;;;;;5084461;28;20605;-78
2021/03/12 03:11:40;;;;;;;6.75;2.72;;;8.40;99.90;;;;;;5087022;28;20203;-79
2021/03/12 03:14:06;;;;;;;9.32;2.53;;;8.40;99.90;;;;;;5078666;28;20203;-79
2021/03/12 03:16:37;;;;;;;9.77;3.50;;;8.40;99.90;;;;;;5077692;28;20298;-80
2021/03/12 03:19:06;;;;;;;9.77;2.72;;;8.40;99.90;;;;;;5079507;28;20656;-79
2021/03/12 03:21:33;;;;;;;9.10;3.83;;;8.40;99.90;;;;;;5081517;28;20299;-80
2021/03/12 03:24:00;;;;;;;9.82;3.17;;;8.40;99.90;;;;;;5080338;28;20204;-78
2021/03/12 03:26:26;;;;;;;17.13;4.07;;;8.40;99.90;;;;;;5086932;28;20655;-79
2021/03/12 03:28:53;;;;;;;15.65;3.05;;;8.40;99.90;;;;;;5085826;28;20283;-78
2021/03/12 03:31:20;;;;;;;6.50;2.53;;;8.40;99.90;;;;;;5082675;28;20660;-79
2021/03/12 03:33:48;;;;;;;8.10;2.60;;;8.50;99.90;;;;;;5078819;28;20199;-80
2021/03/12 03:36:15;;;;;;;7.55;2.25;;;8.40;99.90;;;;;;5082016;28;20294;-80
2021/03/12 03:38:41;;;;;;;6.40;3.30;;;8.40;99.90;;;;;;5083058;28;20200;-80
2021/03/12 03:41:14;;;;;;;7.70;2.55;;;8.40;99.90;;;;;;5082524;28;20238;-79
2021/03/12 03:43:45;;;;;;;6.03;2.88;;;8.40;99.90;;;;;;5076234;28;20221;-78
2021/03/12 03:46:12;;;;;;;8.77;3.50;;;8.40;99.90;;;;;;5078901;28;20931;-80
2021/03/12 03:48:40;;;;;;;8.93;2.50;;;8.30;99.90;;;;;;5083491;28;20643;-79
2021/03/12 03:51:09;;;;;;;8.80;3.00;;;8.40;99.90;;;;;;5083441;28;20204;-78
2021/03/12 03:53:37;;;;;;;7.00;2.83;;;8.40;99.90;;;;;;5079091;28;20196;-79
2021/03/12 03:56:05;;;;;;;6.75;2.20;;;8.40;99.90;;;;;;5074363;28;20763;-80
2021/03/12 03:58:34;;;;;;;6.88;2.97;;;8.40;99.90;;;;;;5073776;28;20202;-79
2021/03/12 04:01:01;;;;;;;9.65;3.42;;;8.40;99.90;;;;;;5073522;28;20223;-80
2021/03/12 04:03:28;;;;;;;10.85;2.60;;;8.40;99.90;;;;;;5083005;28;20224;-78
2021/03/12 04:05:57;;;;;;;8.90;3.88;;;8.40;99.90;;;;;;5082747;28;20196;-80
2021/03/12 04:08:26;;;;;;;6.10;2.53;;;8.40;99.90;;;;;;5079018;28;20188;-78
2021/03/12 04:10:56;;;;;;;8.23;3.40;;;8.40;99.90;;;;;;5077229;28;20785;-80
2021/03/12 04:13:22;;;;;;;9.05;2.85;;;8.40;99.90;;;;;;5080154;28;20284;-79
2021/03/12 04:15:50;;;;;;;8.02;2.58;;;8.40;99.90;;;;;;5074731;28;20957;-80
2021/03/12 04:18:16;;;;;;;8.77;2.90;;;8.40;99.90;;;;;;5080346;28;20209;-79
2021/03/12 04:20:44;;;;;;;10.63;4.57;;;8.40;99.90;;;;;;5081544;28;20212;-79
2021/03/12 04:23:11;;;;;;;11.45;3.45;;;8.40;99.90;;;;;;5075135;28;20285;-78
2021/03/12 04:25:41;;;;;;;11.02;3.00;;;8.40;99.90;;;;;;5080708;28;20199;-80
2021/03/12 04:28:08;;;;;;;11.55;3.33;;;8.40;99.90;;;;;;5077399;28;20187;-81
2021/03/12 04:30:36;;;;;;;8.10;2.50;;;8.30;99.90;;;;;;5081294;28;20732;-80
2021/03/12 04:33:02;;;;;;;6.88;3.05;;;8.30;99.90;;;;;;5074328;28;20193;-78
2021/03/12 04:35:29;;;;;;;9.27;2.80;;;8.30;99.90;;;;;;5082674;28;20227;-80
2021/03/12 04:37:56;;;;;;;12.45;3.25;;;8.20;99.90;;;;;;5080732;28;20207;-80
2021/03/12 04:40:23;;;;;;;10.73;2.90;;;8.20;99.90;;;;;;5078114;28;20196;-78
2021/03/12 04:42:51;;;;;;;13.40;3.08;;;8.20;99.90;;;;;;5075913;28;20573;-79
2021/03/12 04:45:18;;;;;;;9.43;3.10;;;8.10;99.90;;;;;;5081997;28;20192;-78
2021/03/12 04:47:45;;;;;;;11.65;3.25;;;8.10;99.90;;;;;;5081028;28;20291;-79
2021/03/12 04:50:12;;;;;;;10.32;2.75;;;8.20;99.90;;;;;;5075543;28;20204;-80
2021/03/12 04:52:39;;;;;;;13.98;3.50;;;8.20;99.90;;;;;;5074910;28;20939;-80
2021/03/12 04:55:08;;;;;;;12.40;3.33;;;8.20;99.90;;;;;;5078596;28;20205;-78
2021/03/12 04:57:36;;;;;;;21.58;4.88;;;8.20;99.90;;;;;;5072021;28;20200;-78
2021/03/12 05:00:05;;;;;;;7.72;3.25;;;8.10;99.90;;;;;;5081262;28;20224;-78
2021/03/12 05:02:33;;;;;;;14.02;4.25;;;8.10;99.90;;;;;;5082635;28;20745;-81
2021/03/12 05:05:00;;;;;;;13.60;3.17;;;8.10;99.90;;;;;;5079571;28;20201;-79
2021/03/12 05:07:27;;;;;;;12.90;3.25;;;8.10;99.90;;;;;;5080199;28;20222;-78
2021/03/12 05:09:54;;;;;;;10.70;3.90;;;8.20;99.90;;;;;;5080569;28;20219;-80
2021/03/12 05:12:20;;;;;;;5.00;2.30;;;8.10;99.90;;;;;;5077141;28;20307;-77
2021/03/12 05:14:47;;;;;;;7.20;2.75;;;8.10;99.90;;;;;;5077772;28;20742;-78
2021/03/12 05:17:14;;;;;;;7.78;3.85;;;8.10;99.90;;;;;;5081374;28;20195;-79
2021/03/12 05:19:40;;;;;;;11.80;4.30;;;8.10;99.90;;;;;;5080322;28;20192;-79
2021/03/12 05:22:08;;;;;;;15.00;3.60;;;8.10;99.90;;;;;;5076127;28;20223;-79
2021/03/12 05:24:34;;;;;;;13.10;3.38;;;8.00;99.90;;;;;;5077359;28;20253;-79
2021/03/12 05:27:01;;;;;;;8.68;3.70;;;8.00;99.90;;;;;;5079612;28;20322;-79
2021/03/12 05:29:27;;;;;;;7.78;3.63;;;8.00;99.90;;;;;;5080387;28;20207;-79
2021/03/12 05:31:54;;;;;;;9.77;3.40;;;8.00;99.90;;;;;;5085626;28;20655;-79
2021/03/12 05:34:21;;;;;;;14.60;3.80;;;8.00;99.90;;;;;;5077065;28;20281;-80
2021/03/12 05:36:48;;;;;;;11.13;3.40;;;8.00;99.90;;;;;;5079410;28;20201;-78
2021/03/12 05:39:15;;;;;;;9.23;3.35;;;8.00;99.90;;;;;;5075608;28;21269;-80
2021/03/12 05:41:42;;;;;;;10.15;2.85;;;7.90;99.90;;;;;;5074544;28;20204;-79
2021/03/12 05:44:09;;;;;;;10.43;3.20;;;7.90;99.90;;;;;;5081133;28;20231;-78
2021/03/12 05:46:35;;;;;;;10.38;3.10;;;8.00;99.90;;;;;;5077323;28;20200;-79
2021/03/12 05:49:03;;;;;;;7.25;3.33;;;7.90;99.90;;;;;;5075541;28;20211;-79
2021/03/12 05:51:33;;;;;;;7.43;2.78;;;7.90;99.90;;;;;;5080566;28;20197;-80
2021/03/12 05:54:01;;;;;;;10.88;3.20;;;7.90;99.90;;;;;;5080191;28;20192;-78
2021/03/12 05:56:28;;;;;;;12.30;4.15;;;7.90;99.90;;;;;;5080343;28;20208;-78
2021/03/12 05:58:55;;;;;;;12.45;5.15;;;7.90;99.90;;;;;;5073749;28;20993;-79
2021/03/12 06:01:21;;;;;;;7.38;3.10;;;7.90;99.90;;;;;;5077071;28;20259;-81
2021/03/12 06:03:47;;;;;;;16.67;5.25;;;8.00;99.90;;;;;;5077408;28;20260;-79
2021/03/12 06:06:14;;;;;;;10.10;3.60;;;8.00;99.90;;;;;;5078833;28;20252;-79
2021/03/12 06:08:41;;;;;;;9.02;4.00;;;8.00;99.90;;;;;;5079309;28;20542;-79
2021/03/12 06:11:08;;;;;;;10.20;4.22;;;8.00;99.90;;;;;;5075815;28;20565;-78
2021/03/12 06:13:49;;;;;;;14.65;3.40;;;8.00;99.90;;;;;;5075833;28;20223;-78
2021/03/12 06:16:24;;;;;;;12.73;5.07;;;8.00;99.90;;;;;;5081076;28;20279;-80
2021/03/12 06:19:15;;;;;;;9.68;4.70;;;8.00;99.90;;;;;;5079771;28;20298;-79
2021/03/12 06:21:43;;;;;;;8.63;4.47;;;8.00;99.90;;;;;;5076337;28;20675;-78
2021/03/12 06:24:27;;;;;;;11.02;3.78;;;8.00;99.90;;;;;;5080583;28;20201;-79
2021/03/12 06:26:54;;;;;;;7.45;3.03;;;8.00;99.90;;;;;;5080590;28;20196;-79
2021/03/12 06:29:35;;;;;;;15.45;3.45;;;8.00;99.90;;;;;;5080282;28;20204;-78
2021/03/12 06:32:03;;;;;;;9.43;3.97;;;8.00;99.90;;;;;;5077413;28;20196;-79
2021/03/12 06:34:30;;;;;;;10.75;4.07;;;8.00;99.90;;;;;;5077839;28;20207;-79
2021/03/12 06:36:57;;;;;;;11.15;2.90;;;8.00;99.90;;;;;;5077658;28;20289;-79
2021/03/12 06:39:34;;;;;;;13.05;3.50;;;8.00;99.90;;;;;;5077221;28;20214;-78
2021/03/12 06:42:09;;;;;;;10.02;3.58;;;8.00;99.90;;;;;;5071924;28;20580;-79
2021/03/12 06:44:37;;;;;;;17.52;6.75;;;8.00;99.90;;;;;;5075954;28;20719;-78
2021/03/12 06:47:04;;;;;;;8.45;3.30;;;8.00;99.90;;;;;;5076993;28;20218;-79
2021/03/12 06:49:30;;;;;;;6.68;3.65;;;8.00;99.90;;;;;;5072169;28;20827;-79
2021/03/12 06:51:59;;;;;;;11.98;4.03;;;8.00;99.90;;;;;;5076902;28;20318;-78
2021/03/12 06:54:27;;;;;;;11.38;3.38;;;8.10;99.90;;;;;;5075407;28;20191;-77
2021/03/12 06:56:55;;;;;;;4.65;2.92;;;8.10;99.90;;;;;;5074989;28;20196;-80
2021/03/12 06:59:29;;;;;;;10.43;4.68;;;8.10;99.90;;;;;;5075784;28;20314;-77
2021/03/12 07:02:00;;;;;;;12.05;3.92;;;8.10;99.90;;;;;;5076695;28;20310;-77
2021/03/12 07:04:27;;;;;;;17.83;4.47;;;8.20;99.90;;;;;;5081178;28;20242;-79
2021/03/12 07:06:54;;;;;;;7.63;3.15;;;8.20;99.90;;;;;;5075155;28;20192;-78
2021/03/12 07:09:22;;;;;;;13.65;3.83;;;8.20;99.90;;;;;;5077462;28;20203;-78
2021/03/12 07:11:57;;;;;;;7.72;2.72;;;8.20;99.90;;;;;;5068169;28;20204;-80
2021/03/12 07:14:24;;;;;;;4.15;3.50;;;8.30;99.90;;;;;;5078502;28;20187;-80
2021/03/12 07:16:51;;;;;;;17.23;4.10;;;8.30;99.90;;;;;;5079264;28;20235;-79
2021/03/12 07:19:18;;;;;;;14.05;3.15;;;8.30;99.90;;;;;;5076769;28;20204;-79
2021/03/12 07:21:48;;;;;;;6.70;3.00;;;8.30;99.90;;;;;;5072594;28;20211;-78
2021/03/12 07:24:18;;;;;;;17.33;3.40;;;8.40;99.90;;;;;;5072407;28;20233;-80
2021/03/12 07:26:48;;;;;;;10.18;3.40;;;8.40;99.90;;;;;;5075775;28;20248;-78
2021/03/12 07:29:18;;;;;;;6.82;3.17;;;8.40;99.90;;;;;;5078271;28;20196;-78
2021/03/12 07:31:47;;;;;;;14.75;4.10;;;8.40;99.90;;;;;;5081956;28;20201;-78
2021/03/12 07:34:19;;;;;;;11.98;5.65;;;8.50;99.90;;;;;;5084364;28;20269;-77
2021/03/12 07:36:49;;;;;;;15.43;3.15;;;8.50;99.90;;;;;;5079269;28;20273;-80
2021/03/12 07:39:20;;;;;;;12.93;4.18;;;8.60;99.90;;;;;;5078391;28;20194;-79
2021/03/12 07:41:48;;;;;;;9.18;3.58;;;8.60;99.90;;;;;;5081937;28;20294;-78
2021/03/12 07:44:17;;;;;;;15.13;3.47;;;8.60;99.90;;;;;;5080577;28;20278;-78
2021/03/12 07:46:48;;;;;;;9.73;3.40;;;8.70;99.90;;;;;;5083415;28;20929;-77
2021/03/12 07:49:34;;;;;;;6.80;3.97;;;8.70;99.90;;;;;;5085032;28;20276;-79
2021/03/12 07:52:02;;;;;;;15.13;3.35;;;8.80;99.90;;;;;;5081304;28;20283;-79
2021/03/12 07:54:53;;;;;;;10.15;3.45;;;8.80;99.90;;;;;;5079798;28;20617;-78
2021/03/12 07:57:38;;;;;;;10.48;3.75;;;8.80;99.90;;;;;;5080832;28;21004;-79
2021/03/12 08:00:07;;;;;;;11.75;3.40;;;8.90;99.90;;;;;;5080478;28;20223;-78
2021/03/12 08:02:57;;;;;;;9.15;3.30;;;8.90;99.90;;;;;;5076436;28;20224;-78
2021/03/12 08:05:32;;;;;;;18.75;3.78;;;8.90;99.90;;;;;;5075707;28;20828;-77
2021/03/12 08:07:59;;;;;;;18.63;4.00;;;8.90;99.90;;;;;;5076920;28;20315;-78
2021/03/12 08:10:25;;;;;;;8.98;3.20;;;8.90;99.90;;;;;;5074675;28;20202;-78
2021/03/12 08:12:52;;;;;;;8.73;3.47;;;9.00;99.90;;;;;;5079448;28;20201;-81
2021/03/12 08:15:21;;;;;;;12.27;4.43;;;9.00;99.90;;;;;;5079314;28;20232;-79
2021/03/12 08:18:26;;;;;;;11.48;2.85;;;9.10;99.90;;;;;;5079340;28;20208;-80
2021/03/12 08:20:52;;;;;;;11.32;3.28;;;9.10;99.90;;;;;;5081097;28;20245;-79
2021/03/12 08:23:33;;;;;;;7.93;3.60;;;9.10;99.90;;;;;;5075693;28;20323;-80
2021/03/12 08:26:00;;;;;;;22.20;3.58;;;9.20;99.90;;;;;;5077478;28;20640;-79
2021/03/12 08:28:33;;;;;;;13.85;3.60;;;9.20;99.90;;;;;;5081022;28;20606;-79
2021/03/12 08:31:02;;;;;;;16.80;3.90;;;9.30;99.90;;;;;;5076823;28;20192;-79
2021/03/12 08:33:35;;;;;;;8.60;3.00;;;9.30;99.90;;;;;;5082830;28;20197;-79
2021/03/12 08:36:01;;;;;;;7.97;3.10;;;9.30;99.90;;;;;;5073901;28;20295;-80
2021/03/12 08:38:44;;;;;;;9.88;3.65;;;9.30;99.90;;;;;;5076582;28;20197;-80
2021/03/12 08:41:22;;;;;;;8.20;3.65;;;9.40;99.90;;;;;;5077280;28;20196;-79
2021/03/12 08:43:54;;;;;;;13.50;3.60;;;9.50;99.90;;;;;;5079094;28;20785;-78
2021/03/12 08:46:26;;;;;;;8.88;3.75;;;9.50;99.90;;;;;;5077522;28;20201;-80
2021/03/12 08:48:54;;;;;;;10.50;3.35;;;9.60;99.90;;;;;;5072509;28;20200;-78
2021/03/12 08:51:23;;;;;;;14.38;3.78;;;9.70;99.90;;;;;;5069931;28;20197;-80
2021/03/12 08:53:55;;;;;;;5.35;2.70;;;9.70;99.90;;;;;;5072366;28;20196;-78
2021/03/12 08:56:24;;;;;;;9.32;3.97;;;9.70;99.90;;;;;;5073603;28;20282;-81
2021/03/12 08:58:51;;;;;;;6.30;2.95;;;9.70;99.90;;;;;;5073932;28;20203;-80
2021/03/12 09:01:19;;;;;;;9.73;3.80;;;9.80;99.90;;;;;;5073756;28;20233;-78
2021/03/12 09:03:50;;;;;;;9.60;3.33;;;9.80;99.90;;;;;;5071681;28;20247;-79
2021/03/12 09:06:18;;;;;;;7.07;4.03;;;9.80;99.90;;;;;;5072459;28;20240;-82
2021/03/12 09:08:46;;;;;;;14.57;3.95;;;9.70;99.90;;;;;;5074119;28;20225;-80
2021/03/12 09:11:16;;;;;;;11.25;3.00;;;9.80;99.90;;;;;;5082643;28;20190;-80
2021/03/12 09:13:44;;;;;;;10.70;3.35;;;9.70;99.90;;;;;;5077412;28;20199;-79
2021/03/12 09:16:11;;;;;;;8.60;3.30;;;9.80;99.90;;;;;;5070532;28;20658;-78
2021/03/12 09:18:39;;;;;;;5.82;3.28;;;9.80;99.90;;;;;;5073790;28;20284;-80
2021/03/12 09:21:08;;;;;;;10.35;3.95;;;9.80;99.90;;;;;;5081132;28;20243;-78
2021/03/12 09:23:37;;;;;;;9.98;4.32;;;9.90;99.90;;;;;;5075515;28;20225;-77
2021/03/12 09:26:04;;;;;;;15.27;4.45;;;10.00;99.90;;;;;;5074939;28;20316;-79
2021/03/12 09:28:31;;;;;;;13.65;4.43;;;10.00;99.90;;;;;;5079201;28;20320;-82
2021/03/12 09:30:59;;;;;;;9.13;3.53;;;10.10;99.90;;;;;;5079821;28;20554;-79
2021/03/12 09:33:32;;;;;;;8.82;3.90;;;10.20;99.90;;;;;;5080506;28;20677;-79
2021/03/12 09:35:59;;;;;;;13.02;4.00;;;10.30;99.90;;;;;;5078535;28;20731;-78
2021/03/12 09:38:38;;;;;;;10.18;3.92;;;10.30;99.90;;;;;;5074728;28;20237;-80
2021/03/12 09:41:17;;;;;;;16.17;4.13;;;10.40;99.90;;;;;;5078422;28;20208;-79
2021/03/12 09:43:44;;;;;;;9.18;3.50;;;10.50;99.90;;;;;;5078590;28;20224;-80
2021/03/12 09:46:12;;;;;;;10.40;3.83;;;10.60;99.90;;;;;;5080038;28;20203;-80
2021/03/12 09:48:39;;;;;;;8.68;2.97;;;10.70;99.90;;;;;;5083586;28;20205;-80
2021/03/12 09:51:06;;;;;;;7.10;3.42;;;10.70;99.90;;;;;;5073959;28;20198;-81
2021/03/12 09:53:34;;;;;;;7.47;3.83;;;10.70;99.90;;;;;;5075752;28;20562;-80
2021/03/12 09:56:01;;;;;;;8.45;3.53;;;10.70;99.90;;;;;;5072799;28;20237;-80
2021/03/12 09:58:28;;;;;;;14.23;3.80;;;10.60;99.90;;;;;;5075320;28;20199;-80
2021/03/12 10:01:10;;;;;;;10.40;3.40;;;10.60;99.90;;;;;;5075957;28;20336;-79
2021/03/12 10:03:36;;;;;;;8.82;3.20;;;10.60;99.90;;;;;;5072995;28;20241;-80
2021/03/12 10:06:07;;;;;;;5.57;2.60;;;10.60;99.90;;;;;;5075734;28;20241;-80
2021/03/12 10:08:55;;;;;;;11.93;3.10;;;10.60;99.90;;;;;;5081013;28;20649;-78
2021/03/12 10:11:21;;;;;;;12.60;3.15;;;10.60;99.90;;;;;;5076647;28;20197;-81
2021/03/12 10:13:48;;;;;;;10.30;3.22;;;10.70;99.90;;;;;;5078225;28;20223;-80
2021/03/12 10:16:14;;;;;;;11.85;3.40;;;10.70;99.90;;;;;;5080166;28;20694;-80
2021/03/12 10:18:40;;;;;;;19.23;4.05;;;10.70;99.90;;;;;;5075685;28;21054;-80
2021/03/12 10:21:10;;;;;;;8.98;3.33;;;10.70;99.90;;;;;;5077695;28;20218;-78
2021/03/12 10:23:39;;;;;;;10.35;3.60;;;10.70;99.90;;;;;;5074451;28;20330;-78
2021/03/12 10:26:06;;;;;;;11.38;2.70;;;10.70;99.90;;;;;;5072585;28;20229;-78
2021/03/12 10:28:33;;;;;;;17.30;3.13;;;10.70;99.90;;;;;;5071621;28;20204;-79
2021/03/12 10:31:01;;;;;;;7.25;2.92;;;10.70;99.90;;;;;;5077704;28;20554;-80
2021/03/12 10:33:30;;;;;;;10.65;3.58;;;10.60;99.90;;;;;;5078566;28;20634;-78
2021/03/12 10:35:58;;;;;;;7.72;2.55;;;10.70;99.90;;;;;;5074531;28;20647;-79
2021/03/12 10:38:26;;;;;;;8.93;3.15;;;10.70;99.90;;;;;;5074067;28;20268;-79
2021/03/12 10:40:56;;;;;;;5.35;2.80;;;10.70;99.90;;;;;;5077074;28;20285;-81
2021/03/12 10:43:25;;;;;;;9.63;2.90;;;10.70;99.90;;;;;;5073597;28;20230;-79
2021/03/12 10:45:53;;;;;;;10.10;3.97;;;10.80;99.90;;;;;;5078541;28;20698;-79
2021/03/12 10:48:25;;;;;;;10.30;3.60;;;10.80;99.90;;;;;;5078377;28;20289;-78
2021/03/12 10:50:54;;;;;;;11.60;3.17;;;10.90;99.90;;;;;;5071369;28;20499;-78
2021/03/12 10:53:21;;;;;;;3.83;2.33;;;10.90;99.90;;;;;;5076555;28;20292;-78
2021/03/12 10:55:49;;;;;;;10.77;3.47;;;11.00;99.90;;;;;;5076217;28;20255;-78
2021/03/12 10:58:28;;;;;;;8.27;3.28;;;11.00;99.90;;;;;;5079540;28;20191;-78
2021/03/12 11:01:12;;;;;;;6.15;2.65;;;11.10;99.90;;;;;;5078697;28;20230;-78
2021/03/12 11:03:40;;;;;;;13.68;3.47;;;11.10;99.90;;;;;;5076982;28;20261;-79
2021/03/12 11:06:07;;;;;;;10.98;3.80;;;11.10;99.90;;;;;;5082668;28;20327;-77
2021/03/12 11:08:35;;;;;;;8.82;3.13;;;11.20;99.90;;;;;;5083359;28;20241;-80
2021/03/12 11:11:03;;;;;;;10.25;3.00;;;11.20;99.90;;;;;;5083059;28;20312;-78
2021/03/12 11:13:30;;;;;;;6.57;2.85;;;11.20;99.90;;;;;;5081942;28;20645;-77
2021/03/12 11:15:56;;;;;;;5.63;2.72;;;11.20;99.90;;;;;;5075114;28;20199;-80
2021/03/12 11:18:25;;;;;;;9.50;3.53;;;11.20;99.90;;;;;;5081957;28;20210;-78
2021/03/12 11:20:51;;;;;;;11.98;3.40;;;11.30;99.90;;;;;;5082899;28;20973;-78
2021/03/12 11:23:17;;;;;;;5.68;2.55;;;11.30;99.90;;;;;;5081725;28;20318;-78
2021/03/12 11:25:44;;;;;;;11.38;3.47;;;11.30;99.90;;;;;;5082440;28;20231;-81
2021/03/12 11:28:11;;;;;;;9.20;2.25;;;11.40;99.90;;;;;;5082995;28;20282;-80
2021/03/12 11:30:38;;;;;;;8.13;3.25;;;11.50;99.90;;;;;;5081340;28;20493;-79
2021/03/12 11:33:05;;;;;;;4.65;2.38;;;11.50;99.90;;;;;;5074757;28;20239;-78
2021/03/12 11:35:32;;;;;;;3.95;2.60;;;11.60;99.90;;;;;;5082455;28;20196;-79
2021/03/12 11:37:58;;;;;;;13.32;3.00;;;11.60;99.90;;;;;;5082253;28;20202;-78
2021/03/12 11:40:25;;;;;;;5.70;2.30;;;11.60;99.90;;;;;;5078860;28;20196;-79
2021/03/12 11:42:52;;;;;;;8.00;2.92;;;11.60;99.90;;;;;;5082803;28;20334;-79
2021/03/12 11:45:20;;;;;;;9.13;3.00;;;11.60;99.90;;;;;;5082153;28;20227;-77
2021/03/12 11:47:47;;;;;;;6.80;2.50;;;11.70;99.90;;;;;;5078796;28;20289;-80
2021/03/12 11:50:16;;;;;;;8.95;2.28;;;11.70;99.90;;;;;;5083766;28;20215;-78
2021/03/12 11:52:43;;;;;;;6.10;2.67;;;11.70;99.90;;;;;;5078452;28;20206;-81
2021/03/12 11:55:10;;;;;;;9.52;3.13;;;11.70;99.90;;;;;;5077425;28;20685;-80
2021/03/12 11:57:37;;;;;;;5.75;2.72;;;11.70;99.90;;;;;;5080143;28;20200;-79
2021/03/12 12:00:06;;;;;;;9.80;3.70;;;11.70;99.90;;;;;;5082442;28;20659;-78
2021/03/12 12:02:33;;;;;;;19.50;3.55;;;11.60;99.90;;;;;;5076601;28;20285;-78
2021/03/12 12:05:02;;;;;;;9.93;3.10;;;11.60;99.90;;;;;;5079160;28;20327;-78
2021/03/12 12:07:28;;;;;;;13.98;3.90;;;11.60;99.90;;;;;;5076499;28;20197;-78
2021/03/12 12:09:55;;;;;;;8.98;4.25;;;11.60;99.90;;;;;;5081463;28;20239;-78
2021/03/12 12:12:22;;;;;;;10.00;2.80;;;11.60;99.90;;;;;;5082983;28;20231;-78
2021/03/12 12:14:48;;;;;;;5.43;2.95;;;11.70;99.90;;;;;;5081170;28;20207;-80
2021/03/12 12:17:14;;;;;;;12.82;2.70;;;11.70;99.90;;;;;;5080972;28;20291;-78
2021/03/12 12:19:41;;;;;;;4.40;2.40;;;11.80;99.90;;;;;;5077918;28;20272;-79
2021/03/12 12:22:10;;;;;;;6.60;3.92;;;11.80;99.90;;;;;;5082201;28;20221;-80
2021/03/12 12:24:36;;;;;;;5.35;2.28;;;11.90;99.90;;;;;;5081272;28;20231;-80
2021/03/12 12:27:03;;;;;;;13.50;3.53;;;11.90;99.90;;;;;;5080140;28;20196;-79
2021/03/12 12:29:29;;;;;;;6.20;2.22;;;11.90;99.90;;;;;;5081273;28;20215;-78
2021/03/12 12:31:56;;;;;;;9.63;3.58;;;11.90;99.90;;;;;;5076551;28;20719;-80
2021/03/12 12:34:22;;;;;;;11.93;2.45;;;11.90;99.90;;;;;;5074234;28;20291;-78
2021/03/12 12:36:49;;;;;;;6.03;2.65;;;11.90;99.90;;;;;;5077940;28;20214;-77
2021/03/12 12:39:17;;;;;;;5.78;2.10;;;11.80;99.90;;;;;;5072755;28;20199;-78
2021/03/12 12:41:47;;;;;;;6.68;2.65;;;11.90;99.90;;;;;;5077452;28;20196;-77
2021/03/12 12:44:14;;;;;;;7.85;2.97;;;11.90;99.90;;;;;;5071867;28;20340;-79
2021/03/12 12:46:42;;;;;;;6.35;2.55;;;11.90;99.90;;;;;;5076416;28;20210;-79
2021/03/12 12:49:09;;;;;;;7.80;3.30;;;11.90;99.90;;;;;;5077397;28;20229;-78
2021/03/12 12:51:36;;;;;;;21.05;4.10;;;11.90;99.90;;;;;;5075976;28;20527;-80
2021/03/12 12:54:04;;;;;;;10.93;3.22;;;12.00;99.90;;;;;;5079168;28;22126;-80
2021/03/12 12:56:31;;;;;;;8.43;3.10;;;12.00;99.90;;;;;;5075396;28;20283;-78
2021/03/12 12:58:58;;;;;;;9.03;2.67;;;12.10;99.90;;;;;;5078412;28;20192;-78